Time;durP1;ratioP1;P1;durP2;ratioP2;P2;SDS_P1;SDS_P2;PMS_P1;PMS_P2;Temp;Humidity;BMP_temperature;BMP_pressure;BME280_temperature;BME280_humidity;BME280_pressure;Samples;Min_cycle;Max_cycle;Signal;HPM_P1;HPM_P2
2023/02/02 00:01:50;;;;;;;7.07;2.97;;;7.10;99.90;;;;;;5012774;28;20396;-75
2023/02/02 00:04:19;;;;;;;6.67;2.80;;;7.10;99.90;;;;;;5015141;28;21027;-75
2023/02/02 00:06:45;;;;;;;9.20;2.97;;;7.20;99.90;;;;;;5026216;28;20404;-75
2023/02/02 00:09:16;;;;;;;6.63;2.30;;;7.20;99.90;;;;;;5013081;28;20445;-75
2023/02/02 00:11:43;;;;;;;10.33;3.23;;;7.10;99.90;;;;;;5013657;28;20383;-75
2023/02/02 00:14:09;;;;;;;3.83;2.33;;;7.10;99.90;;;;;;5013106;28;20920;-75
2023/02/02 00:16:36;;;;;;;7.80;3.20;;;7.10;99.90;;;;;;5026910;28;20430;-74
2023/02/02 00:19:07;;;;;;;11.07;2.97;;;7.20;99.90;;;;;;5032963;28;20439;-75
2023/02/02 00:21:33;;;;;;;6.87;2.13;;;7.20;99.90;;;;;;5033335;28;20448;-75
2023/02/02 00:24:00;;;;;;;4.30;2.40;;;7.10;99.90;;;;;;5032916;28;20454;-75
2023/02/02 00:26:26;;;;;;;6.83;2.40;;;7.20;99.90;;;;;;5048215;28;20414;-75
2023/02/02 00:28:52;;;;;;;7.30;3.07;;;7.20;99.90;;;;;;5032748;28;20402;-75
2023/02/02 00:31:17;;;;;;;5.07;2.53;;;7.20;99.90;;;;;;5030294;28;20168;-75
2023/02/02 00:33:47;;;;;;;5.50;2.50;;;7.20;99.90;;;;;;5031622;28;20471;-75
2023/02/02 00:36:14;;;;;;;6.00;2.33;;;7.20;99.90;;;;;;5031778;28;20558;-75
2023/02/02 00:38:39;;;;;;;6.93;3.27;;;7.20;99.90;;;;;;5030859;28;20483;-75
2023/02/02 00:41:06;;;;;;;6.23;3.10;;;7.20;99.90;;;;;;5032716;28;20426;-75
2023/02/02 00:43:31;;;;;;;8.77;3.00;;;7.20;99.90;;;;;;5031410;28;20645;-75
2023/02/02 00:45:57;;;;;;;4.70;2.60;;;7.20;99.90;;;;;;5032901;28;20410;-75
2023/02/02 00:48:24;;;;;;;4.90;2.80;;;7.30;99.90;;;;;;5031171;28;20176;-75
2023/02/02 00:50:51;;;;;;;10.17;2.67;;;7.30;99.90;;;;;;5032602;28;20253;-75
2023/02/02 00:53:16;;;;;;;9.63;2.73;;;7.30;99.90;;;;;;5032588;28;20415;-75
2023/02/02 00:55:42;;;;;;;8.33;2.53;;;7.30;99.90;;;;;;5032673;28;20402;-75
2023/02/02 00:58:08;;;;;;;12.17;3.20;;;7.30;99.90;;;;;;5031007;28;20423;-74
2023/02/02 01:00:34;;;;;;;5.00;2.20;;;7.20;99.90;;;;;;5032586;28;20922;-75
2023/02/02 01:03:03;;;;;;;9.73;3.67;;;7.30;99.90;;;;;;5032689;28;20661;-74
2023/02/02 01:05:30;;;;;;;5.20;2.93;;;7.30;99.90;;;;;;5033359;28;20215;-74
2023/02/02 01:07:55;;;;;;;5.10;2.77;;;7.30;99.90;;;;;;5035252;28;20473;-75
2023/02/02 01:10:21;;;;;;;6.93;2.83;;;7.40;99.90;;;;;;5037044;28;20430;-75
2023/02/02 01:12:46;;;;;;;5.70;2.77;;;7.30;99.90;;;;;;5033058;28;20171;-74
2023/02/02 01:15:12;;;;;;;5.17;3.00;;;7.40;99.90;;;;;;5035409;28;20172;-75
2023/02/02 01:17:39;;;;;;;4.87;2.40;;;7.40;99.90;;;;;;5035833;28;20184;-75
2023/02/02 01:20:06;;;;;;;5.63;2.30;;;7.50;99.90;;;;;;5035963;28;20847;-75
2023/02/02 01:22:33;;;;;;;4.20;2.17;;;7.40;99.90;;;;;;5035832;28;20431;-75
2023/02/02 01:24:59;;;;;;;5.87;2.33;;;7.50;99.90;;;;;;5036220;28;20829;-75
2023/02/02 01:27:25;;;;;;;9.20;2.73;;;7.50;99.90;;;;;;5051814;28;20833;-74
2023/02/02 01:29:51;;;;;;;3.40;2.33;;;7.40;99.90;;;;;;5035877;28;20436;-75
2023/02/02 01:32:16;;;;;;;7.53;2.50;;;7.40;99.90;;;;;;5034459;28;20175;-75
2023/02/02 01:34:42;;;;;;;4.80;2.47;;;7.40;99.90;;;;;;5036054;28;20507;-75
2023/02/02 01:37:09;;;;;;;6.70;2.30;;;7.30;99.90;;;;;;5035966;28;20632;-74
2023/02/02 01:39:34;;;;;;;6.30;2.10;;;7.30;99.90;;;;;;5035581;28;20604;-75
2023/02/02 01:42:00;;;;;;;5.73;2.70;;;7.30;99.90;;;;;;5035651;28;20422;-75
2023/02/02 01:45:00;;;;;;;4.43;2.30;;;7.30;99.90;;;;;;5036472;28;20203;-75
2023/02/02 01:47:30;;;;;;;5.00;1.93;;;7.30;99.90;;;;;;5019770;28;20188;-75
2023/02/02 01:49:56;;;;;;;4.13;2.10;;;7.20;99.90;;;;;;5035788;28;20894;-74
2023/02/02 01:52:25;;;;;;;3.70;2.60;;;7.20;99.90;;;;;;5036166;28;20416;-75
2023/02/02 01:54:55;;;;;;;8.27;2.93;;;7.30;99.90;;;;;;5035803;28;20223;-75
2023/02/02 01:57:30;;;;;;;5.70;2.47;;;7.30;99.90;;;;;;5034196;28;20427;-75
2023/02/02 01:59:59;;;;;;;7.63;2.80;;;7.30;99.90;;;;;;5035915;28;20462;-75
2023/02/02 02:02:26;;;;;;;10.90;4.83;;;7.20;99.90;;;;;;5034279;28;20994;-75
2023/02/02 02:04:54;;;;;;;9.00;2.93;;;7.30;99.90;;;;;;5035730;28;20463;-75
2023/02/02 02:07:20;;;;;;;5.40;3.13;;;7.30;99.90;;;;;;5034000;28;20419;-75
2023/02/02 02:09:46;;;;;;;6.80;1.80;;;7.30;99.90;;;;;;5035598;28;20960;-75
2023/02/02 02:12:14;;;;;;;3.70;2.07;;;7.50;99.90;;;;;;5028419;28;20456;-75
2023/02/02 02:17:59;;;;;;;4.80;2.07;;;7.50;99.90;;;;;;5020699;28;20448;-75
2023/02/02 02:27:28;;;;;;;6.00;2.10;;;7.40;99.90;;;;;;5034726;28;20466;-75
2023/02/02 02:30:23;;;;;;;4.17;1.90;;;7.30;99.90;;;;;;5034688;28;20415;-75
2023/02/02 02:33:05;;;;;;;6.10;2.17;;;7.30;99.90;;;;;;4995020;28;20942;-75
2023/02/02 02:36:13;;;;;;;3.60;2.13;;;7.30;99.90;;;;;;5014536;28;20756;-75
2023/02/02 02:38:55;;;;;;;4.20;2.10;;;7.30;99.90;;;;;;4976608;28;20426;-74
2023/02/02 02:41:26;;;;;;;3.80;1.67;;;7.30;99.90;;;;;;4993355;28;20479;-75
2023/02/02 02:44:06;;;;;;;3.17;1.80;;;7.30;99.90;;;;;;5007011;28;20887;-75
2023/02/02 02:46:33;;;;;;;5.77;2.03;;;7.30;99.90;;;;;;5014249;28;20388;-75
2023/02/02 02:49:00;;;;;;;3.30;1.80;;;7.40;99.90;;;;;;5030391;28;20483;-75
2023/02/02 02:51:39;;;;;;;4.90;2.07;;;7.40;99.90;;;;;;5034559;28;20480;-75
2023/02/02 02:54:06;;;;;;;2.13;1.80;;;7.40;99.90;;;;;;5032430;28;20458;-75
2023/02/02 02:56:42;;;;;;;7.97;2.10;;;7.30;99.90;;;;;;5034748;28;20422;-75
2023/02/02 02:59:32;;;;;;;5.47;1.80;;;7.30;99.90;;;;;;5034374;28;20464;-75
2023/02/02 03:02:19;;;;;;;5.33;1.97;;;7.50;99.90;;;;;;4994541;28;20436;-75
2023/02/02 03:05:04;;;;;;;3.73;2.20;;;7.40;99.90;;;;;;4994366;28;20449;-76
2023/02/02 03:07:43;;;;;;;3.23;1.90;;;7.50;99.90;;;;;;4994574;28;20937;-75
2023/02/02 03:10:12;;;;;;;3.80;2.20;;;7.40;99.90;;;;;;4994488;28;20435;-75
2023/02/02 03:12:45;;;;;;;4.83;2.13;;;7.40;99.90;;;;;;4994549;28;20400;-75
2023/02/02 03:15:12;;;;;;;3.83;1.60;;;7.50;99.90;;;;;;4994219;28;20410;-75
2023/02/02 03:17:37;;;;;;;3.50;1.77;;;7.50;99.90;;;;;;4994875;28;20991;-75
2023/02/02 03:20:04;;;;;;;7.30;2.30;;;7.60;99.90;;;;;;4994379;28;20509;-75
2023/02/02 03:22:30;;;;;;;3.17;1.40;;;7.50;99.90;;;;;;5030127;28;20178;-74
2023/02/02 03:24:58;;;;;;;4.10;1.50;;;7.60;99.90;;;;;;5033752;28;20461;-75
2023/02/02 03:27:24;;;;;;;4.97;1.80;;;7.50;99.90;;;;;;5032588;28;20157;-76
2023/02/02 03:29:50;;;;;;;3.47;1.60;;;7.50;99.90;;;;;;5014312;28;20424;-75
2023/02/02 03:32:16;;;;;;;6.63;1.63;;;7.50;99.90;;;;;;5013928;28;20426;-75
2023/02/02 03:34:41;;;;;;;3.20;1.60;;;7.50;99.90;;;;;;5014800;28;20466;-75
2023/02/02 03:37:07;;;;;;;2.93;1.60;;;7.50;99.90;;;;;;5013166;28;20666;-75
2023/02/02 03:39:32;;;;;;;4.50;1.47;;;7.50;99.90;;;;;;5014493;28;20193;-75
2023/02/02 03:41:58;;;;;;;4.20;1.50;;;7.50;99.90;;;;;;5013995;28;20220;-75
2023/02/02 03:44:23;;;;;;;2.00;1.30;;;7.50;99.90;;;;;;5018254;28;20196;-74
2023/02/02 03:46:53;;;;;;;2.60;1.20;;;7.40;99.90;;;;;;5015381;28;20165;-73
2023/02/02 03:49:19;;;;;;;3.43;1.70;;;7.40;99.90;;;;;;5015956;28;20204;-74
2023/02/02 03:51:45;;;;;;;1.77;1.30;;;7.50;99.90;;;;;;5013648;28;20416;-73
2023/02/02 03:54:10;;;;;;;2.60;1.70;;;7.50;99.90;;;;;;5013687;28;20487;-74
2023/02/02 03:56:36;;;;;;;5.80;1.30;;;7.50;99.90;;;;;;5013908;28;20174;-74
2023/02/02 03:59:02;;;;;;;3.93;1.43;;;7.40;99.90;;;;;;5013757;28;20465;-74
2023/02/02 04:01:28;;;;;;;2.50;1.40;;;7.50;99.90;;;;;;5028408;28;20177;-74
2023/02/02 04:03:55;;;;;;;1.40;1.10;;;7.50;99.90;;;;;;5033015;28;20192;-74
2023/02/02 04:06:21;;;;;;;3.20;1.60;;;7.70;99.90;;;;;;5032094;28;21013;-74
2023/02/02 04:08:47;;;;;;;1.87;1.10;;;7.80;99.90;;;;;;5032900;28;20428;-75
2023/02/02 04:11:12;;;;;;;5.07;1.20;;;7.80;99.90;;;;;;5023134;28;20447;-74
2023/02/02 04:13:38;;;;;;;2.20;1.57;;;7.70;99.90;;;;;;5033075;28;20534;-74
2023/02/02 04:16:04;;;;;;;3.47;1.50;;;7.70;99.90;;;;;;5032679;28;20166;-73
2023/02/02 04:18:30;;;;;;;2.90;1.27;;;7.70;99.90;;;;;;5031754;28;20526;-74
2023/02/02 04:20:58;;;;;;;2.83;1.60;;;7.70;99.90;;;;;;5032790;28;20464;-75
2023/02/02 04:23:23;;;;;;;4.23;1.63;;;7.80;99.90;;;;;;5032840;28;20251;-74
2023/02/02 04:25:50;;;;;;;3.27;1.67;;;7.80;99.90;;;;;;5033121;28;20550;-76
2023/02/02 04:28:16;;;;;;;2.67;1.57;;;7.70;99.90;;;;;;5032947;28;20179;-74
2023/02/02 04:30:41;;;;;;;4.43;1.83;;;7.60;99.90;;;;;;5031062;28;20451;-74
2023/02/02 04:33:07;;;;;;;4.20;2.10;;;7.60;99.90;;;;;;5032816;28;20254;-75
2023/02/02 04:35:32;;;;;;;3.53;2.10;;;7.50;99.90;;;;;;5032838;28;20180;-74
2023/02/02 04:37:58;;;;;;;3.13;1.93;;;7.50;99.90;;;;;;5032710;28;20343;-74
2023/02/02 04:40:24;;;;;;;3.73;1.93;;;7.50;99.90;;;;;;5032800;28;20219;-74
2023/02/02 04:42:49;;;;;;;3.30;1.67;;;7.50;99.90;;;;;;5032701;28;20181;-74
2023/02/02 04:45:15;;;;;;;3.03;1.20;;;7.40;99.90;;;;;;5032450;28;20263;-74
2023/02/02 04:47:40;;;;;;;2.50;1.60;;;7.50;99.90;;;;;;5032828;28;20179;-74
2023/02/02 04:50:07;;;;;;;1.73;1.40;;;7.50;99.90;;;;;;5035696;28;20204;-75
2023/02/02 04:52:32;;;;;;;3.73;1.87;;;7.50;99.90;;;;;;5059811;22;20596;-73
2023/02/02 04:54:58;;;;;;;3.63;2.10;;;7.50;99.90;;;;;;5037900;28;20407;-73
2023/02/02 04:57:25;;;;;;;4.50;1.80;;;7.60;99.90;;;;;;5035680;28;20192;-73
2023/02/02 04:59:50;;;;;;;8.30;2.57;;;7.70;99.90;;;;;;5052027;28;20173;-73
2023/02/02 05:02:16;;;;;;;3.03;1.73;;;7.70;99.90;;;;;;5035274;28;20434;-73
2023/02/02 05:04:41;;;;;;;9.90;5.70;;;7.60;99.90;;;;;;5036663;28;20243;-72
2023/02/02 05:07:07;;;;;;;19.70;13.17;;;7.60;99.90;;;;;;5036337;28;20206;-73
2023/02/02 05:09:32;;;;;;;54.13;30.90;;;7.70;99.90;;;;;;5036613;28;20169;-73
2023/02/02 05:11:58;;;;;;;39.80;27.47;;;7.70;99.90;;;;;;5035217;28;20202;-72
2023/02/02 05:14:24;;;;;;;16.90;11.80;;;7.60;99.90;;;;;;5036644;28;20230;-73
2023/02/02 05:16:49;;;;;;;33.27;27.50;;;7.70;99.90;;;;;;5036310;28;20172;-73
2023/02/02 05:19:15;;;;;;;23.80;17.13;;;7.60;99.90;;;;;;5036078;28;20182;-73
2023/02/02 05:21:43;;;;;;;27.33;19.67;;;7.60;99.90;;;;;;5035576;28;20197;-73
2023/02/02 05:24:09;;;;;;;15.50;8.70;;;7.70;99.90;;;;;;5034947;28;20522;-74
2023/02/02 05:26:35;;;;;;;5.93;4.33;;;7.60;99.90;;;;;;5036047;28;20831;-73
2023/02/02 05:29:01;;;;;;;5.30;2.23;;;7.70;99.90;;;;;;5034854;28;20427;-73
2023/02/02 05:31:27;;;;;;;7.10;3.50;;;7.60;99.90;;;;;;5036278;28;20184;-74
2023/02/02 05:33:53;;;;;;;8.00;6.20;;;7.50;99.90;;;;;;5035675;28;20425;-73
2023/02/02 05:36:18;;;;;;;8.00;3.10;;;7.60;99.90;;;;;;5034588;28;20427;-73
2023/02/02 05:38:44;;;;;;;5.30;2.80;;;7.60;99.90;;;;;;5036468;28;20170;-74
2023/02/02 05:41:09;;;;;;;3.00;2.33;;;7.40;99.90;;;;;;5034925;28;20194;-73
2023/02/02 05:43:35;;;;;;;3.30;1.57;;;7.50;99.90;;;;;;5035411;28;20660;-73
2023/02/02 05:46:01;;;;;;;5.07;2.00;;;7.60;99.90;;;;;;5038510;28;20162;-74
2023/02/02 05:48:27;;;;;;;7.20;2.03;;;7.60;99.90;;;;;;5034793;28;20221;-74
2023/02/02 05:51:03;;;;;;;7.23;2.40;;;7.60;99.90;;;;;;5037815;28;20218;-73
2023/02/02 05:53:30;;;;;;;3.67;2.03;;;7.50;99.90;;;;;;5035655;28;20405;-73
2023/02/02 05:55:56;;;;;;;6.30;2.33;;;7.50;99.90;;;;;;5036507;28;20456;-73
2023/02/02 05:58:21;;;;;;;5.80;2.97;;;7.50;99.90;;;;;;5033739;28;20993;-75
2023/02/02 06:00:47;;;;;;;7.10;2.23;;;7.40;99.90;;;;;;5035017;28;20170;-73
2023/02/02 06:03:13;;;;;;;3.80;2.47;;;7.40;99.90;;;;;;5035152;28;20251;-73
2023/02/02 06:05:38;;;;;;;6.63;2.40;;;7.60;99.90;;;;;;5035087;28;20196;-73
2023/02/02 06:08:04;;;;;;;7.70;3.03;;;7.50;99.90;;;;;;5035201;28;20176;-73
2023/02/02 06:10:30;;;;;;;8.63;3.10;;;7.50;99.90;;;;;;5035555;28;20242;-73
2023/02/02 06:12:57;;;;;;;5.77;2.20;;;7.50;99.90;;;;;;5035477;28;20811;-72
2023/02/02 06:15:23;;;;;;;4.30;2.30;;;7.50;99.90;;;;;;5034547;28;20259;-73
2023/02/02 06:17:48;;;;;;;3.60;2.30;;;7.40;99.90;;;;;;5034997;28;20444;-74
2023/02/02 06:20:14;;;;;;;3.93;2.33;;;7.40;99.90;;;;;;5035952;28;20414;-73
2023/02/02 06:22:41;;;;;;;5.20;3.13;;;7.50;99.90;;;;;;5034907;28;20191;-74
2023/02/02 06:25:07;;;;;;;3.30;2.17;;;7.60;99.90;;;;;;5034117;28;20970;-73
2023/02/02 06:27:33;;;;;;;5.00;2.30;;;7.50;99.90;;;;;;5034606;28;20462;-73
2023/02/02 06:29:58;;;;;;;6.60;2.93;;;7.60;99.90;;;;;;5035120;28;20749;-73
2023/02/02 06:32:24;;;;;;;3.63;2.20;;;7.60;99.90;;;;;;5035342;28;20549;-72
2023/02/02 06:34:49;;;;;;;4.93;2.90;;;7.60;99.90;;;;;;5033833;28;20203;-74
2023/02/02 06:37:15;;;;;;;8.37;2.67;;;7.60;99.90;;;;;;5034348;28;20175;-73
2023/02/02 06:39:41;;;;;;;6.57;2.90;;;7.60;99.90;;;;;;5035365;28;20169;-74
2023/02/02 06:42:06;;;;;;;11.03;4.57;;;7.70;99.90;;;;;;5033581;28;20255;-73
2023/02/02 06:44:32;;;;;;;4.77;3.03;;;7.60;99.90;;;;;;5034818;28;20189;-73
2023/02/02 06:46:57;;;;;;;5.23;2.80;;;7.70;99.90;;;;;;5035474;28;20177;-73
2023/02/02 06:49:23;;;;;;;5.70;3.03;;;7.60;99.90;;;;;;5034642;28;20172;-74
2023/02/02 06:51:49;;;;;;;5.67;2.70;;;7.60;99.90;;;;;;5035512;28;20598;-72
2023/02/02 06:54:14;;;;;;;7.17;3.13;;;7.70;99.90;;;;;;5033228;28;20169;-72
2023/02/02 06:56:40;;;;;;;7.23;3.07;;;7.70;99.90;;;;;;5034665;28;20181;-74
2023/02/02 06:59:05;;;;;;;9.00;2.70;;;7.80;99.90;;;;;;5033624;28;20262;-72
2023/02/02 07:01:31;;;;;;;8.30;2.70;;;7.70;99.90;;;;;;5033943;28;20600;-72
2023/02/02 07:03:57;;;;;;;6.30;2.53;;;7.70;99.90;;;;;;5033792;28;20198;-72
2023/02/02 07:06:25;;;;;;;10.10;2.90;;;7.70;99.90;;;;;;5035947;28;20185;-73
2023/02/02 07:08:52;;;;;;;5.57;2.70;;;7.70;99.90;;;;;;5031643;28;20173;-74
2023/02/02 07:11:17;;;;;;;3.90;2.33;;;7.70;99.90;;;;;;5032719;28;20432;-73
2023/02/02 07:13:48;;;;;;;4.17;2.47;;;7.70;99.90;;;;;;5037921;28;20407;-72
2023/02/02 07:16:15;;;;;;;6.70;2.93;;;7.70;99.90;;;;;;5038023;28;20481;-73
2023/02/02 07:18:42;;;;;;;3.33;2.00;;;7.70;99.90;;;;;;5034077;28;20831;-72
2023/02/02 07:21:08;;;;;;;4.43;1.97;;;7.70;99.90;;;;;;5033949;28;20530;-72
2023/02/02 07:23:34;;;;;;;5.43;2.27;;;7.80;99.90;;;;;;5033460;28;20408;-72
2023/02/02 07:26:05;;;;;;;5.60;3.17;;;7.70;99.90;;;;;;5033714;28;20402;-72
2023/02/02 07:28:31;;;;;;;2.93;2.20;;;7.80;99.90;;;;;;5032105;28;20161;-73
2023/02/02 07:30:57;;;;;;;3.63;2.20;;;7.80;99.90;;;;;;5033462;28;20423;-73
2023/02/02 07:33:23;;;;;;;4.60;2.07;;;7.90;99.90;;;;;;5032876;28;20408;-73
2023/02/02 07:35:48;;;;;;;5.40;2.20;;;7.90;99.90;;;;;;5033655;28;20977;-72
2023/02/02 07:38:14;;;;;;;3.20;1.73;;;7.90;99.90;;;;;;5032282;28;20177;-72
2023/02/02 07:40:39;;;;;;;2.97;1.60;;;7.80;99.90;;;;;;5033601;28;20314;-72
2023/02/02 07:43:05;;;;;;;4.00;1.60;;;7.70;99.90;;;;;;5033531;28;20173;-72
2023/02/02 07:45:30;;;;;;;4.60;2.10;;;7.70;99.90;;;;;;5032124;28;20665;-73
2023/02/02 07:47:57;;;;;;;4.80;1.80;;;7.80;99.90;;;;;;5033457;28;20281;-72
2023/02/02 07:50:24;;;;;;;2.60;2.40;;;7.80;99.90;;;;;;5042308;28;20186;-72
2023/02/02 07:52:50;;;;;;;3.87;2.03;;;7.80;99.90;;;;;;5052614;28;21020;-71
2023/02/02 07:55:16;;;;;;;4.10;2.27;;;7.80;99.90;;;;;;5052490;28;20442;-71
2023/02/02 07:57:41;;;;;;;4.10;2.23;;;7.90;99.90;;;;;;5052750;28;20903;-71
2023/02/02 08:00:08;;;;;;;4.87;2.10;;;7.90;99.90;;;;;;5031989;28;20181;-72
2023/02/02 08:02:33;;;;;;;5.50;2.33;;;7.90;99.90;;;;;;5032980;28;20204;-71
2023/02/02 08:04:59;;;;;;;3.20;1.93;;;7.90;99.90;;;;;;5030806;28;20833;-71
2023/02/02 08:07:25;;;;;;;4.13;2.60;;;7.90;99.90;;;;;;5031672;28;20652;-70
2023/02/02 08:09:50;;;;;;;6.90;2.43;;;7.90;99.90;;;;;;5031693;28;20660;-71
2023/02/02 08:12:17;;;;;;;6.67;2.53;;;8.00;99.90;;;;;;5032480;28;20609;-71
2023/02/02 08:14:42;;;;;;;4.30;2.20;;;7.90;99.90;;;;;;5033086;28;20230;-71
2023/02/02 08:17:08;;;;;;;4.70;1.90;;;8.00;99.90;;;;;;5031954;28;20432;-71
2023/02/02 08:19:33;;;;;;;3.50;2.30;;;8.10;99.90;;;;;;5033039;28;20176;-70
2023/02/02 08:21:59;;;;;;;4.13;1.70;;;8.30;99.90;;;;;;5032084;28;20200;-70
2023/02/02 08:24:24;;;;;;;4.13;2.43;;;8.30;99.90;;;;;;5034877;28;20192;-69
2023/02/02 08:26:50;;;;;;;4.67;2.30;;;8.20;99.90;;;;;;5036937;28;20220;-70
2023/02/02 08:29:16;;;;;;;2.60;2.00;;;8.30;99.90;;;;;;5036903;28;20231;-69
2023/02/02 08:31:43;;;;;;;9.30;4.70;;;8.30;99.90;;;;;;5035242;28;20693;-70
2023/02/02 08:34:10;;;;;;;6.03;2.53;;;8.30;99.90;;;;;;5034870;28;20710;-71
2023/02/02 08:36:36;;;;;;;7.83;4.30;;;8.50;99.90;;;;;;5036399;28;20571;-71
2023/02/02 08:39:04;;;;;;;3.90;2.20;;;8.60;99.90;;;;;;5034955;28;20858;-70
2023/02/02 08:41:31;;;;;;;4.07;2.00;;;8.50;99.90;;;;;;5035885;28;20465;-71
2023/02/02 08:43:57;;;;;;;4.60;2.20;;;8.40;99.90;;;;;;5036262;28;20841;-71
2023/02/02 08:46:23;;;;;;;8.13;3.83;;;8.40;99.90;;;;;;5035938;28;20404;-70
2023/02/02 08:48:48;;;;;;;4.40;2.70;;;8.50;99.90;;;;;;5035244;28;20411;-69
2023/02/02 08:51:17;;;;;;;8.23;2.47;;;8.40;99.90;;;;;;5036342;28;20754;-69
2023/02/02 08:53:43;;;;;;;12.77;4.17;;;8.60;99.90;;;;;;5036370;28;20177;-70
2023/02/02 08:56:15;;;;;;;7.37;2.53;;;8.70;99.90;;;;;;5036729;28;20417;-72
2023/02/02 08:58:52;;;;;;;4.13;1.83;;;8.70;99.90;;;;;;5035447;28;20468;-71
2023/02/02 09:01:26;;;;;;;7.70;2.90;;;8.70;99.90;;;;;;5036529;28;20432;-72
2023/02/02 09:03:53;;;;;;;6.17;2.20;;;8.60;99.90;;;;;;5035183;28;20842;-72
2023/02/02 09:06:30;;;;;;;8.43;3.57;;;8.60;99.90;;;;;;5035466;28;20413;-73
2023/02/02 09:08:56;;;;;;;5.70;2.60;;;8.50;99.90;;;;;;5037270;28;20397;-72
2023/02/02 09:11:21;;;;;;;5.03;2.90;;;8.50;99.90;;;;;;5037235;28;20425;-72
2023/02/02 09:13:51;;;;;;;5.50;2.90;;;8.50;99.90;;;;;;5036010;28;20246;-73
2023/02/02 09:16:17;;;;;;;7.20;2.30;;;8.50;99.90;;;;;;5037898;28;20190;-72
2023/02/02 09:18:44;;;;;;;5.60;2.63;;;8.40;99.90;;;;;;5036179;28;20879;-72
2023/02/02 09:21:13;;;;;;;5.73;2.90;;;8.40;99.90;;;;;;5035639;28;20436;-73
2023/02/02 09:23:40;;;;;;;6.97;2.77;;;8.40;99.90;;;;;;5035314;28;20437;-72
2023/02/02 09:26:10;;;;;;;5.40;2.67;;;8.40;99.90;;;;;;5036152;28;20412;-71
2023/02/02 09:28:41;;;;;;;9.13;2.93;;;8.40;99.90;;;;;;5035834;28;20772;-74
2023/02/02 09:31:07;;;;;;;9.90;3.40;;;8.30;99.90;;;;;;5033771;28;20444;-73
2023/02/02 09:33:33;;;;;;;7.03;3.30;;;8.30;99.90;;;;;;5035511;28;20523;-73
2023/02/02 09:36:16;;;;;;;7.53;3.10;;;8.40;99.90;;;;;;5035027;28;20519;-73
2023/02/02 09:38:42;;;;;;;7.93;3.20;;;8.40;99.90;;;;;;5035874;28;20183;-74
2023/02/02 09:41:14;;;;;;;10.07;2.90;;;8.40;99.90;;;;;;5034728;28;20504;-74
2023/02/02 09:44:03;;;;;;;6.93;3.60;;;8.40;99.90;;;;;;5036069;28;20837;-72
2023/02/02 09:46:42;;;;;;;9.80;3.80;;;8.70;99.90;;;;;;5034312;28;20427;-71
2023/02/02 09:49:12;;;;;;;15.70;5.70;;;8.70;99.90;;;;;;5035483;28;20446;-70
2023/02/02 09:51:47;;;;;;;12.03;3.63;;;8.60;99.90;;;;;;5035570;28;20462;-72
2023/02/02 09:54:20;;;;;;;5.50;2.93;;;8.60;99.90;;;;;;5035099;28;20404;-72
2023/02/02 09:56:50;;;;;;;10.07;5.10;;;8.50;99.90;;;;;;5035465;28;20484;-72
2023/02/02 09:59:22;;;;;;;7.30;3.80;;;8.60;99.90;;;;;;5035278;28;20413;-72
2023/02/02 10:01:56;;;;;;;5.97;3.73;;;8.50;99.90;;;;;;5033612;28;20977;-73
2023/02/02 10:04:33;;;;;;;6.80;4.20;;;8.50;99.90;;;;;;5033481;28;20444;-73
2023/02/02 10:07:08;;;;;;;9.50;3.70;;;8.40;99.90;;;;;;5034085;28;20427;-73
2023/02/02 10:09:53;;;;;;;5.13;2.93;;;8.40;99.90;;;;;;5034952;28;20384;-72
2023/02/02 10:12:39;;;;;;;4.37;2.83;;;8.20;99.90;;;;;;5035191;28;20465;-71
2023/02/02 10:15:12;;;;;;;8.77;3.50;;;8.20;99.90;;;;;;5035222;28;20446;-72
2023/02/02 10:18:13;;;;;;;7.13;3.80;;;8.30;99.90;;;;;;5035229;28;20454;-72
2023/02/02 10:20:53;;;;;;;4.00;2.60;;;8.40;99.90;;;;;;5035084;28;20386;-72
2023/02/02 10:23:42;;;;;;;7.93;2.83;;;8.40;99.90;;;;;;5034387;28;20407;-73
2023/02/02 10:26:29;;;;;;;6.13;2.80;;;8.50;99.90;;;;;;5034439;28;20487;-70
2023/02/02 10:29:17;;;;;;;8.57;3.37;;;8.50;99.90;;;;;;5034951;28;20749;-70
2023/02/02 10:31:52;;;;;;;5.20;2.83;;;8.60;99.90;;;;;;5034698;28;21011;-72
2023/02/02 10:34:26;;;;;;;4.47;3.13;;;8.50;99.90;;;;;;5035118;28;20901;-71
2023/02/02 10:37:02;;;;;;;6.43;3.03;;;8.60;99.90;;;;;;5033450;28;20800;-71
2023/02/02 10:39:59;;;;;;;5.47;2.80;;;8.70;99.90;;;;;;5033108;28;20405;-72
2023/02/02 10:45:39;;;;;;;4.87;2.87;;;8.50;99.90;;;;;;5034338;28;20511;-72
2023/02/02 10:48:17;;;;;;;4.93;3.33;;;8.40;99.90;;;;;;5034050;28;20460;-72
2023/02/02 10:50:50;;;;;;;7.27;3.30;;;8.60;99.90;;;;;;5033990;28;20441;-73
2023/02/02 10:53:16;;;;;;;3.63;2.40;;;8.60;99.90;;;;;;5055372;23;20486;-71
2023/02/02 10:55:52;;;;;;;4.90;2.30;;;8.60;99.90;;;;;;5033865;28;20485;-71
2023/02/02 10:58:36;;;;;;;6.37;2.57;;;8.60;99.90;;;;;;5048142;28;20178;-71
2023/02/02 11:01:06;;;;;;;7.23;2.90;;;8.60;99.90;;;;;;5033854;28;20480;-71
2023/02/02 11:03:32;;;;;;;4.20;2.33;;;8.50;99.90;;;;;;5032823;28;20440;-71
2023/02/02 11:08:55;;;;;;;4.10;2.53;;;8.50;99.90;;;;;;5033197;28;20527;-72
2023/02/02 11:11:37;;;;;;;6.83;2.87;;;8.60;99.90;;;;;;5033604;28;20448;-71
2023/02/02 11:14:10;;;;;;;5.50;3.13;;;8.70;99.90;;;;;;5034043;28;20408;-75
2023/02/02 11:16:39;;;;;;;5.73;2.37;;;8.60;99.90;;;;;;5013635;28;20423;-72
2023/02/02 11:19:18;;;;;;;7.00;3.00;;;8.60;99.90;;;;;;5014191;28;20421;-72
2023/02/02 11:21:49;;;;;;;7.53;2.83;;;8.50;99.90;;;;;;5021537;28;20449;-72
2023/02/02 11:24:35;;;;;;;3.97;2.23;;;8.50;99.90;;;;;;5033377;28;20444;-72
2023/02/02 11:27:14;;;;;;;3.93;2.13;;;8.60;99.90;;;;;;5034179;28;20390;-71
2023/02/02 11:29:41;;;;;;;3.50;2.40;;;8.60;99.90;;;;;;5032396;28;20422;-71
2023/02/02 11:32:27;;;;;;;5.00;2.40;;;8.80;99.90;;;;;;5033588;28;20494;-72
2023/02/02 11:35:13;;;;;;;6.00;2.40;;;8.70;99.90;;;;;;5032471;28;20465;-72
2023/02/02 11:38:00;;;;;;;8.03;2.50;;;8.80;99.90;;;;;;5033857;28;20408;-72
2023/02/02 11:40:42;;;;;;;10.93;2.63;;;8.90;99.90;;;;;;5025022;28;20432;-72
2023/02/02 11:43:27;;;;;;;5.03;2.13;;;9.00;99.90;;;;;;5033606;28;20800;-72
2023/02/02 11:46:05;;;;;;;5.60;2.20;;;8.90;99.90;;;;;;5013879;28;20876;-72
2023/02/02 11:48:37;;;;;;;5.07;2.50;;;8.80;99.90;;;;;;5013351;28;20468;-71
2023/02/02 11:51:04;;;;;;;5.10;2.60;;;8.70;99.90;;;;;;5014004;28;20409;-72
2023/02/02 11:53:39;;;;;;;3.27;2.30;;;8.70;99.90;;;;;;5013293;28;20447;-72
2023/02/02 11:56:09;;;;;;;4.27;2.30;;;8.80;99.90;;;;;;5013680;28;20396;-72
2023/02/02 11:58:49;;;;;;;5.50;2.50;;;8.70;99.90;;;;;;5018586;28;20425;-72
2023/02/02 12:01:39;;;;;;;5.20;3.40;;;8.80;99.90;;;;;;5032905;28;20406;-72
2023/02/02 12:04:17;;;;;;;5.67;2.80;;;8.80;99.90;;;;;;5032915;28;20479;-72
2023/02/02 12:06:43;;;;;;;7.33;3.00;;;8.70;99.90;;;;;;5032166;28;20429;-73
2023/02/02 12:09:18;;;;;;;6.90;3.30;;;8.70;99.90;;;;;;5033695;28;20415;-74
2023/02/02 12:11:53;;;;;;;7.13;2.90;;;8.60;99.90;;;;;;5027396;28;20199;-74
2023/02/02 12:14:29;;;;;;;6.40;3.03;;;8.60;99.90;;;;;;5013536;28;20396;-73
2023/02/02 12:17:21;;;;;;;8.80;2.83;;;8.70;99.90;;;;;;5013604;28;20427;-72
2023/02/02 12:20:06;;;;;;;4.93;3.03;;;8.70;99.90;;;;;;5027115;28;21019;-72
2023/02/02 12:22:40;;;;;;;7.70;2.70;;;8.70;99.90;;;;;;5033114;28;20428;-72
2023/02/02 12:25:33;;;;;;;7.47;2.80;;;8.50;99.90;;;;;;5031842;28;20984;-71
2023/02/02 12:28:23;;;;;;;4.40;2.40;;;8.70;99.90;;;;;;5032679;28;20869;-71
2023/02/02 12:31:15;;;;;;;7.57;2.47;;;8.60;99.90;;;;;;5031630;28;20421;-72
2023/02/02 12:33:59;;;;;;;3.97;2.70;;;8.50;99.90;;;;;;5032429;28;20437;-73
2023/02/02 12:36:33;;;;;;;4.67;2.23;;;8.60;99.90;;;;;;5031646;28;20423;-72
2023/02/02 12:39:09;;;;;;;5.10;2.73;;;8.40;99.90;;;;;;5031085;28;20398;-72
2023/02/02 12:42:03;;;;;;;4.40;2.07;;;8.40;99.90;;;;;;5033055;28;20396;-73
2023/02/02 12:44:34;;;;;;;6.13;2.60;;;8.50;99.90;;;;;;5032518;28;20466;-74
2023/02/02 12:47:21;;;;;;;7.17;2.47;;;8.60;99.90;;;;;;5033137;28;20432;-73
2023/02/02 12:50:14;;;;;;;3.80;2.57;;;8.70;99.90;;;;;;5032792;28;20393;-75
2023/02/02 12:53:16;;;;;;;5.47;3.13;;;8.50;99.90;;;;;;5032683;28;20439;-73
2023/02/02 12:56:11;;;;;;;3.00;2.20;;;8.40;99.90;;;;;;5032969;28;20397;-72
2023/02/02 12:58:40;;;;;;;5.40;2.70;;;8.40;99.90;;;;;;5032573;28;20402;-73
2023/02/02 13:01:21;;;;;;;7.50;2.60;;;8.30;99.90;;;;;;5032840;28;20411;-72
2023/02/02 13:04:25;;;;;;;5.80;3.20;;;8.20;99.90;;;;;;5032868;28;20396;-73
2023/02/02 13:07:19;;;;;;;4.27;2.60;;;8.20;99.90;;;;;;5032867;28;20428;-72
2023/02/02 13:10:05;;;;;;;4.10;2.73;;;8.10;99.90;;;;;;5033536;28;20395;-73
2023/02/02 13:12:36;;;;;;;5.07;2.80;;;8.00;99.90;;;;;;5034964;28;20815;-72
2023/02/02 13:15:07;;;;;;;4.30;2.80;;;8.10;99.90;;;;;;5036506;28;20412;-73
2023/02/02 13:17:41;;;;;;;4.53;2.67;;;8.10;99.90;;;;;;5036133;28;20885;-71
2023/02/02 13:20:24;;;;;;;4.67;2.70;;;8.10;99.90;;;;;;5036139;28;20886;-72
2023/02/02 13:22:54;;;;;;;5.87;2.30;;;8.20;99.90;;;;;;5035873;28;20826;-72
2023/02/02 13:25:30;;;;;;;3.00;2.43;;;8.10;99.90;;;;;;5036553;28;20439;-73
2023/02/02 13:27:58;;;;;;;4.13;2.23;;;8.00;99.90;;;;;;5036294;28;20399;-72
2023/02/02 13:30:33;;;;;;;4.40;2.57;;;7.80;99.90;;;;;;5036409;28;20414;-69